createdAt,value
2022-11-20T00:01:19.685Z,8.80
2022-11-20T00:03:47.449Z,8.40
2022-11-20T00:06:16.781Z,8.20
2022-11-20T00:08:44.701Z,8.70
2022-11-20T00:11:17.667Z,8.80
2022-11-20T00:13:46.773Z,9.10
2022-11-20T00:16:17.312Z,8.90
2022-11-20T00:18:45.725Z,8.80
2022-11-20T00:21:17.214Z,8.50
2022-11-20T00:23:44.794Z,8.30
2022-11-20T00:26:14.510Z,8.10
2022-11-20T00:28:43.774Z,8.20
2022-11-20T00:31:16.002Z,8.60
2022-11-20T00:33:43.799Z,8.80
2022-11-20T00:36:16.353Z,8.90
2022-11-20T00:38:44.379Z,8.90
2022-11-20T00:41:14.422Z,8.80
2022-11-20T00:43:42.635Z,8.80
2022-11-20T00:46:16.946Z,8.80
2022-11-20T00:48:45.826Z,8.70
2022-11-20T00:51:15.778Z,8.60
2022-11-20T00:53:43.715Z,8.60
2022-11-20T00:56:14.371Z,8.60
2022-11-20T00:58:44.136Z,8.70
2022-11-20T01:01:30.426Z,8.70
2022-11-20T01:04:00.553Z,8.60
2022-11-20T01:06:33.642Z,8.60
2022-11-20T01:09:04.698Z,8.60
2022-11-20T01:11:34.882Z,8.60
2022-11-20T01:14:05.003Z,8.70
2022-11-20T01:16:34.969Z,8.70
2022-11-20T01:19:04.630Z,8.60
2022-11-20T01:21:38.041Z,8.60
2022-11-20T01:24:07.999Z,8.60
2022-11-20T01:26:37.447Z,8.60
2022-11-20T01:29:06.319Z,8.70
2022-11-20T01:31:36.624Z,8.70
2022-11-20T01:34:07.338Z,8.70
2022-11-20T01:36:36.707Z,8.70
2022-11-20T01:39:11.669Z,8.70
2022-11-20T01:41:57.962Z,8.60
2022-11-20T01:44:55.706Z,8.60
2022-11-20T01:47:25.432Z,8.50
2022-11-20T01:50:17.790Z,8.50
2022-11-20T01:53:06.408Z,8.40
2022-11-20T01:55:37.695Z,8.40
2022-11-20T01:58:06.053Z,8.20
2022-11-20T02:00:34.088Z,8.20
2022-11-20T02:03:09.424Z,8.10
2022-11-20T02:05:45.644Z,7.80
2022-11-20T02:08:13.630Z,7.50
2022-11-20T02:10:41.149Z,7.20
2022-11-20T02:13:28.140Z,7.10
2022-11-20T02:15:55.841Z,6.90
2022-11-20T02:18:24.210Z,6.80
2022-11-20T02:20:59.110Z,6.80
2022-11-20T02:23:33.369Z,6.70
2022-11-20T02:26:04.430Z,6.60
2022-11-20T02:28:32.020Z,6.60
2022-11-20T02:30:59.501Z,6.50
2022-11-20T02:33:26.875Z,6.30
2022-11-20T02:35:54.299Z,6.30
2022-11-20T02:38:22.230Z,6.30
2022-11-20T02:40:55.158Z,6.10
2022-11-20T02:43:24.106Z,6.00
2022-11-20T02:45:51.568Z,6.00
2022-11-20T02:48:19.043Z,6.00
2022-11-20T02:50:46.473Z,6.00
2022-11-20T02:53:13.866Z,6.00
2022-11-20T02:55:41.418Z,6.00
2022-11-20T02:58:08.953Z,5.90
2022-11-20T03:00:36.510Z,6.00
2022-11-20T03:03:03.934Z,5.90
2022-11-20T03:05:31.298Z,5.80
2022-11-20T03:07:58.710Z,5.70
2022-11-20T03:10:26.279Z,5.70
2022-11-20T03:12:56.998Z,5.70
2022-11-20T03:15:24.950Z,5.70
2022-11-20T03:17:56.237Z,5.50
2022-11-20T03:20:24.089Z,5.80
2022-11-20T03:22:51.795Z,5.90
2022-11-20T03:25:19.233Z,5.90
2022-11-20T03:27:46.606Z,5.70
2022-11-20T03:30:14.801Z,5.80
2022-11-20T03:32:42.546Z,5.70
2022-11-20T03:35:10.325Z,5.80
2022-11-20T03:37:37.738Z,5.90
2022-11-20T03:40:05.832Z,5.80
2022-11-20T03:42:46.041Z,5.60
2022-11-20T03:45:18.329Z,5.70
2022-11-20T03:47:46.552Z,5.60
2022-11-20T03:50:14.972Z,5.60
2022-11-20T03:52:42.707Z,5.60
2022-11-20T03:55:10.613Z,5.50
2022-11-20T03:57:37.962Z,5.40
2022-11-20T04:00:06.280Z,5.30
2022-11-20T04:02:33.688Z,5.20
2022-11-20T04:05:01.116Z,5.30
2022-11-20T04:07:28.600Z,5.40
2022-11-20T04:09:56.004Z,5.50
2022-11-20T04:12:23.464Z,5.50
2022-11-20T04:14:50.868Z,5.40
2022-11-20T04:17:18.292Z,5.50
2022-11-20T04:19:45.597Z,5.30
2022-11-20T04:22:13.245Z,5.20
2022-11-20T04:24:40.582Z,5.30
2022-11-20T04:27:10.595Z,5.40
2022-11-20T04:29:37.963Z,5.40
2022-11-20T04:32:05.594Z,5.30
2022-11-20T04:34:32.990Z,5.30
2022-11-20T04:37:01.614Z,5.30
2022-11-20T04:39:28.996Z,5.20
2022-11-20T04:42:14.666Z,5.00
2022-11-20T04:44:42.085Z,5.20
2022-11-20T04:47:09.485Z,5.10
2022-11-20T04:49:37.017Z,5.10
2022-11-20T04:52:04.568Z,4.80
2022-11-20T04:54:31.894Z,5.00
2022-11-20T04:56:59.313Z,5.20
2022-11-20T04:59:26.663Z,5.30
2022-11-20T05:01:54.299Z,5.40
2022-11-20T05:04:21.776Z,5.50
2022-11-20T05:06:50.282Z,5.20
2022-11-20T05:09:17.666Z,4.90
2022-11-20T05:11:48.083Z,4.70
2022-11-20T05:14:18.753Z,4.70
2022-11-20T05:16:46.274Z,4.50
2022-11-20T05:19:13.743Z,4.90
2022-11-20T05:21:41.150Z,5.10
2022-11-20T05:24:08.650Z,5.00
2022-11-20T05:26:36.097Z,4.60
2022-11-20T05:29:03.564Z,4.50
2022-11-20T05:31:30.946Z,4.70
2022-11-20T05:33:58.766Z,4.50
2022-11-20T05:36:26.476Z,4.50
2022-11-20T05:38:59.710Z,4.60
2022-11-20T05:41:29.654Z,4.60
2022-11-20T05:43:58.556Z,4.40
2022-11-20T05:46:28.624Z,4.50
2022-11-20T05:48:57.918Z,4.30
2022-11-20T05:51:26.607Z,4.20
2022-11-20T05:53:53.969Z,4.20
2022-11-20T05:56:23.057Z,4.20
2022-11-20T05:58:50.573Z,3.90
2022-11-20T06:01:23.878Z,3.70
2022-11-20T06:03:51.805Z,3.90
2022-11-20T06:06:20.702Z,4.00
2022-11-20T06:08:48.797Z,3.90
2022-11-20T06:11:17.874Z,3.80
2022-11-20T06:13:46.375Z,3.70
2022-11-20T06:16:16.886Z,3.70
2022-11-20T06:18:44.335Z,4.10
2022-11-20T06:21:13.381Z,4.30
2022-11-20T06:23:40.830Z,4.20
2022-11-20T06:26:13.634Z,4.00
2022-11-20T06:28:41.369Z,4.00
2022-11-20T06:31:12.242Z,4.20
2022-11-20T06:33:39.964Z,4.10
2022-11-20T06:36:10.852Z,3.90
2022-11-20T06:38:39.561Z,4.00
2022-11-20T06:41:08.627Z,4.10
2022-11-20T06:43:36.001Z,4.30
2022-11-20T06:46:04.116Z,4.20
2022-11-20T06:48:31.605Z,4.60
2022-11-20T06:50:59.644Z,5.00
2022-11-20T06:53:27.052Z,5.00
2022-11-20T06:55:58.550Z,4.80
2022-11-20T06:58:28.888Z,4.90
2022-11-20T07:01:00.769Z,4.80
2022-11-20T07:03:28.694Z,4.70
2022-11-20T07:08:25.314Z,5.50
2022-11-20T07:10:53.129Z,5.70
2022-11-20T07:13:20.523Z,5.80
2022-11-20T07:15:47.905Z,6.00
2022-11-20T07:18:15.291Z,6.10
2022-11-20T07:20:42.726Z,5.90
2022-11-20T07:23:10.080Z,6.10
2022-11-20T07:25:37.529Z,6.10
2022-11-20T07:28:05.061Z,6.30
2022-11-20T07:30:32.463Z,6.40
2022-11-20T07:33:00.407Z,6.60
2022-11-20T07:35:27.830Z,6.70
2022-11-20T07:37:55.214Z,6.80
2022-11-20T07:40:22.668Z,6.90
2022-11-20T07:42:54.336Z,7.00
2022-11-20T07:45:23.513Z,7.20
2022-11-20T07:47:51.694Z,7.30
2022-11-20T07:50:20.053Z,7.40
2022-11-20T07:52:48.040Z,7.50
2022-11-20T07:55:15.857Z,7.60
2022-11-20T07:57:43.249Z,7.80
2022-11-20T08:00:12.390Z,7.90
2022-11-20T08:02:41.045Z,8.00
2022-11-20T08:05:09.882Z,8.10
2022-11-20T08:07:41.832Z,8.10
2022-11-20T08:10:11.249Z,8.10
2022-11-20T08:13:07.537Z,8.20
2022-11-20T08:15:35.553Z,8.30
2022-11-20T08:18:31.578Z,8.50
2022-11-20T08:21:03.296Z,8.50
2022-11-20T08:23:31.184Z,8.60
2022-11-20T08:25:58.579Z,8.70
2022-11-20T08:28:25.957Z,8.90
2022-11-20T08:31:00.112Z,9.10
2022-11-20T08:33:28.138Z,9.20
2022-11-20T08:36:03.534Z,9.30
2022-11-20T08:38:32.087Z,9.20
2022-11-20T08:41:19.117Z,9.40
2022-11-20T08:43:46.553Z,9.50
2022-11-20T08:46:14.129Z,9.60
2022-11-20T08:48:41.614Z,9.70
2022-11-20T08:51:09.363Z,9.80
2022-11-20T08:53:36.851Z,9.90
2022-11-20T08:56:04.429Z,10.00
2022-11-20T08:58:48.826Z,10.00
2022-11-20T09:01:21.137Z,10.10
2022-11-20T09:03:48.594Z,10.20
2022-11-20T09:06:16.141Z,10.20
2022-11-20T09:08:43.673Z,10.30
2022-11-20T09:11:11.294Z,10.30
2022-11-20T09:13:38.758Z,10.40
2022-11-20T09:16:09.562Z,10.50
2022-11-20T09:18:38.318Z,10.50
2022-11-20T09:21:07.961Z,10.60
2022-11-20T09:23:36.907Z,10.60
2022-11-20T09:26:13.296Z,10.70
2022-11-20T09:28:41.419Z,10.70
2022-11-20T09:31:11.125Z,10.70
2022-11-20T09:33:38.791Z,10.80
2022-11-20T09:36:06.522Z,10.80
2022-11-20T09:38:33.932Z,11.00
2022-11-20T09:41:05.465Z,11.10
2022-11-20T09:43:43.492Z,11.20
2022-11-20T09:46:28.694Z,11.20
2022-11-20T09:49:17.604Z,11.30
2022-11-20T09:52:06.659Z,11.40
2022-11-20T09:54:40.307Z,11.50
2022-11-20T09:57:22.823Z,11.60
2022-11-20T09:59:58.400Z,11.50
2022-11-20T10:02:25.687Z,11.60
2022-11-20T10:05:02.888Z,11.80
2022-11-20T10:08:09.996Z,11.90
2022-11-20T10:10:52.413Z,12.10
2022-11-20T10:13:29.906Z,12.10
2022-11-20T10:16:18.708Z,12.20
2022-11-20T10:18:46.038Z,12.20
2022-11-20T10:21:39.367Z,12.30
2022-11-20T10:24:24.985Z,12.30
2022-11-20T10:27:21.419Z,12.40
2022-11-20T10:30:03.281Z,12.40
2022-11-20T10:33:07.702Z,12.40
2022-11-20T10:35:45.962Z,12.50
2022-11-20T10:38:39.125Z,12.60
2022-11-20T10:41:25.764Z,12.50
2022-11-20T10:44:06.325Z,12.70
2022-11-20T10:46:41.674Z,12.70
2022-11-20T10:49:27.254Z,12.70
2022-11-20T10:52:08.122Z,12.70
2022-11-20T10:54:41.513Z,12.80
2022-11-20T10:57:39.547Z,12.70
2022-11-20T11:00:10.125Z,12.80
2022-11-20T11:03:04.039Z,12.80
2022-11-20T11:05:53.133Z,12.80
2022-11-20T11:08:20.937Z,12.90
2022-11-20T11:10:58.345Z,13.00
2022-11-20T11:13:28.555Z,13.10
2022-11-20T11:15:58.575Z,13.10
2022-11-20T11:18:31.833Z,13.10
2022-11-20T11:21:06.087Z,13.10
2022-11-20T11:23:39.312Z,13.00
2022-11-20T11:26:18.939Z,13.10
2022-11-20T11:29:00.574Z,13.00
2022-11-20T11:31:33.825Z,13.10
2022-11-20T11:34:15.716Z,13.20
2022-11-20T11:36:50.440Z,13.20
2022-11-20T11:39:21.253Z,13.20
2022-11-20T11:41:49.999Z,13.20
2022-11-20T11:44:52.994Z,13.20
2022-11-20T11:47:23.213Z,13.20
2022-11-20T11:50:27.432Z,13.20
2022-11-20T11:53:16.757Z,13.30
2022-11-20T11:56:09.781Z,13.30
2022-11-20T11:58:46.467Z,13.40
2022-11-20T12:01:35.172Z,13.40
2022-11-20T12:04:39.713Z,13.30
2022-11-20T12:07:46.675Z,13.30
2022-11-20T12:10:23.010Z,13.40
2022-11-20T12:12:56.920Z,13.50
2022-11-20T12:15:30.757Z,13.40
2022-11-20T12:17:58.354Z,13.50
2022-11-20T12:20:33.434Z,13.40
2022-11-20T12:23:14.574Z,13.50
2022-11-20T12:25:47.790Z,13.40
2022-11-20T12:28:42.551Z,13.40
2022-11-20T12:31:35.896Z,13.40
2022-11-20T12:34:17.578Z,13.50
2022-11-20T12:37:10.062Z,13.50
2022-11-20T12:39:48.394Z,13.50
2022-11-20T12:42:52.996Z,13.50
2022-11-20T12:45:54.758Z,13.40
2022-11-20T12:48:35.947Z,13.50
2022-11-20T12:51:16.536Z,13.50
2022-11-20T12:54:19.963Z,13.50
2022-11-20T12:56:53.357Z,13.50
2022-11-20T12:59:55.805Z,13.40
2022-11-20T13:02:53.747Z,13.50
2022-11-20T13:05:45.784Z,13.40
2022-11-20T13:08:44.504Z,13.40
2022-11-20T13:11:23.719Z,13.50
2022-11-20T13:13:59.718Z,13.40
2022-11-20T13:16:36.709Z,13.50
2022-11-20T13:19:05.915Z,13.40
2022-11-20T13:21:41.674Z,13.30
2022-11-20T13:24:27.594Z,13.40
2022-11-20T13:27:21.902Z,13.20
2022-11-20T13:30:02.264Z,13.30
2022-11-20T13:32:33.303Z,13.30
2022-11-20T13:35:04.033Z,13.20
2022-11-20T13:37:37.040Z,13.10
2022-11-20T13:40:11.347Z,13.10
2022-11-20T13:43:16.922Z,13.20
2022-11-20T13:45:57.095Z,13.20
2022-11-20T13:48:27.565Z,13.20
2022-11-20T13:50:58.065Z,13.10
2022-11-20T13:53:44.245Z,13.10
2022-11-20T13:56:46.653Z,13.10
2022-11-20T13:59:34.683Z,13.10
2022-11-20T14:02:02.567Z,13.10
2022-11-20T14:04:39.116Z,13.10
2022-11-20T14:07:07.757Z,13.00
2022-11-20T14:09:35.476Z,13.00
2022-11-20T14:12:04.607Z,13.00
2022-11-20T14:14:34.398Z,13.00
2022-11-20T14:17:22.714Z,13.00
2022-11-20T14:19:52.270Z,12.90
2022-11-20T14:22:29.417Z,12.80
2022-11-20T14:25:17.784Z,12.80
2022-11-20T14:27:51.385Z,12.80
2022-11-20T14:30:24.528Z,12.70
2022-11-20T14:32:54.239Z,12.70
2022-11-20T14:35:35.130Z,12.60
2022-11-20T14:38:03.813Z,12.60
2022-11-20T14:40:36.022Z,12.50
2022-11-20T14:43:05.932Z,12.50
2022-11-20T14:45:33.351Z,12.50
2022-11-20T14:48:03.409Z,12.40
2022-11-20T14:50:32.461Z,12.40
2022-11-20T14:53:01.743Z,12.30
2022-11-20T14:55:39.486Z,12.30
2022-11-20T14:58:28.805Z,12.20
2022-11-20T15:01:01.335Z,12.10
2022-11-20T15:03:41.980Z,12.00
2022-11-20T15:06:13.042Z,11.90
2022-11-20T15:08:52.208Z,11.90
2022-11-20T15:11:24.161Z,11.80
2022-11-20T15:13:51.896Z,11.60
2022-11-20T15:16:22.054Z,11.50
2022-11-20T15:18:49.565Z,11.30
2022-11-20T15:21:19.697Z,11.20
2022-11-20T15:23:47.549Z,11.00
2022-11-20T15:26:23.182Z,10.90
2022-11-20T15:28:51.317Z,10.80
2022-11-20T15:31:21.905Z,10.60
2022-11-20T15:33:50.062Z,10.50
2022-11-20T15:36:17.970Z,10.30
2022-11-20T15:38:45.370Z,10.30
2022-11-20T15:41:12.802Z,10.20
2022-11-20T15:43:40.250Z,10.20
2022-11-20T15:46:21.851Z,10.00
2022-11-20T15:48:55.756Z,9.70
2022-11-20T15:51:26.136Z,9.50
2022-11-20T15:53:53.540Z,9.40
2022-11-20T15:56:20.946Z,9.40
2022-11-20T15:58:48.303Z,9.60
2022-11-20T16:01:18.635Z,9.80
2022-11-20T16:03:46.278Z,9.50
2022-11-20T16:06:13.594Z,9.10
2022-11-20T16:08:41.040Z,8.90
2022-11-20T16:11:11.454Z,8.60
2022-11-20T16:13:57.401Z,8.40
2022-11-20T16:16:29.753Z,8.30
2022-11-20T16:18:57.832Z,8.20
2022-11-20T16:21:31.554Z,8.30
2022-11-20T16:24:04.236Z,8.40
2022-11-20T16:26:32.198Z,8.40
2022-11-20T16:29:01.245Z,8.40
2022-11-20T16:31:28.707Z,8.50
2022-11-20T16:33:57.789Z,8.50
2022-11-20T16:36:26.700Z,8.40
2022-11-20T16:38:58.773Z,8.30
2022-11-20T16:41:28.555Z,8.20
2022-11-20T16:43:58.284Z,8.10
2022-11-20T16:46:28.315Z,8.10
2022-11-20T16:49:04.624Z,8.20
2022-11-20T16:51:34.967Z,8.10
2022-11-20T16:54:03.905Z,7.90
2022-11-20T16:56:31.331Z,7.80
2022-11-20T16:59:00.270Z,7.60
2022-11-20T17:01:29.084Z,7.50
2022-11-20T17:04:05.170Z,7.40
2022-11-20T17:06:35.415Z,7.40
2022-11-20T17:09:03.941Z,7.40
2022-11-20T17:11:31.454Z,7.50
2022-11-20T17:14:07.439Z,8.00
2022-11-20T17:16:36.929Z,8.40
2022-11-20T17:19:05.357Z,8.20
2022-11-20T17:21:36.213Z,7.70
2022-11-20T17:24:09.424Z,7.30
2022-11-20T17:26:38.997Z,7.20
2022-11-20T17:29:12.937Z,7.10
2022-11-20T17:31:40.730Z,7.00
2022-11-20T17:34:11.065Z,6.90
2022-11-20T17:36:44.875Z,6.90
2022-11-20T17:39:14.545Z,7.00
2022-11-20T17:41:41.991Z,6.90
2022-11-20T17:44:10.668Z,6.90
2022-11-20T17:46:38.418Z,6.80
2022-11-20T17:49:05.915Z,6.90
2022-11-20T17:51:35.067Z,7.30
2022-11-20T17:54:05.486Z,7.80
2022-11-20T17:56:52.825Z,7.80
2022-11-20T17:59:20.510Z,7.80
2022-11-20T18:01:48.170Z,7.70
2022-11-20T18:04:16.825Z,7.40
2022-11-20T18:06:44.605Z,7.20
2022-11-20T18:09:12.553Z,7.00
2022-11-20T18:11:41.376Z,7.00
2022-11-20T18:14:31.142Z,7.00
2022-11-20T18:17:11.703Z,6.90
2022-11-20T18:19:55.665Z,6.80
2022-11-20T18:22:32.044Z,6.80
2022-11-20T18:24:59.655Z,6.70
2022-11-20T18:27:26.981Z,6.70
2022-11-20T18:29:54.389Z,6.70
2022-11-20T18:32:22.677Z,6.60
2022-11-20T18:34:51.260Z,6.80
2022-11-20T18:37:19.232Z,6.90
2022-11-20T18:39:46.709Z,7.00
2022-11-20T18:42:34.569Z,7.10
2022-11-20T18:45:04.417Z,7.10
2022-11-20T18:47:37.317Z,7.50
2022-11-20T18:50:06.798Z,7.70
2022-11-20T18:52:40.233Z,7.30
2022-11-20T18:55:09.172Z,7.00
2022-11-20T18:57:36.730Z,6.70
2022-11-20T19:00:09.243Z,6.70
2022-11-20T19:02:41.736Z,6.70
2022-11-20T19:05:15.009Z,6.70
2022-11-20T19:07:43.184Z,6.70
2022-11-20T19:10:10.986Z,6.60
2022-11-20T19:12:38.536Z,6.50
2022-11-20T19:15:06.517Z,6.90
2022-11-20T19:17:34.116Z,6.80
2022-11-20T19:20:01.442Z,6.40
2022-11-20T19:22:28.926Z,6.40
2022-11-20T19:24:56.286Z,6.40
2022-11-20T19:27:23.783Z,6.50
2022-11-20T19:29:51.206Z,6.90
2022-11-20T19:32:18.581Z,7.30
2022-11-20T19:34:46.018Z,7.60
2022-11-20T19:37:13.376Z,7.60
2022-11-20T19:39:40.745Z,7.20
2022-11-20T19:42:08.111Z,6.90
2022-11-20T19:44:35.899Z,6.50
2022-11-20T19:47:08.883Z,6.40
2022-11-20T19:49:41.752Z,6.20
2022-11-20T19:52:09.460Z,5.90
2022-11-20T19:54:36.863Z,5.80
2022-11-20T19:57:04.229Z,5.80
2022-11-20T19:59:31.851Z,6.10
2022-11-20T20:01:59.452Z,6.50
2022-11-20T20:04:27.480Z,6.30
2022-11-20T20:06:54.872Z,6.40
2022-11-20T20:09:23.845Z,6.20
2022-11-20T20:11:51.505Z,5.90
2022-11-20T20:14:19.247Z,5.70
2022-11-20T20:16:47.092Z,5.60
2022-11-20T20:19:15.855Z,5.50
2022-11-20T20:21:44.110Z,5.40
2022-11-20T20:24:12.517Z,5.40
2022-11-20T20:26:40.014Z,5.30
2022-11-20T20:29:07.429Z,5.30
2022-11-20T20:31:35.367Z,5.50
2022-11-20T20:34:05.277Z,6.10
2022-11-20T20:36:33.096Z,6.50
2022-11-20T20:39:02.686Z,6.00
2022-11-20T20:41:30.677Z,5.80
2022-11-20T20:44:16.516Z,5.70
2022-11-20T20:46:43.974Z,5.60
2022-11-20T20:49:11.437Z,5.30
2022-11-20T20:51:39.083Z,5.10
2022-11-20T20:54:06.567Z,5.00
2022-11-20T20:56:33.925Z,4.90
2022-11-20T20:59:01.387Z,4.90
2022-11-20T21:01:29.319Z,4.90
2022-11-20T21:03:57.742Z,4.90
2022-11-20T21:06:25.997Z,4.90
2022-11-20T21:08:54.148Z,4.90
2022-11-20T21:11:21.580Z,4.80
2022-11-20T21:13:50.477Z,4.80
2022-11-20T21:16:20.925Z,4.70
2022-11-20T21:18:48.974Z,5.10
2022-11-20T21:21:36.046Z,5.70
2022-11-20T21:24:03.990Z,6.10
2022-11-20T21:26:31.357Z,6.40
2022-11-20T21:28:58.884Z,6.60
2022-11-20T21:31:27.262Z,6.80
2022-11-20T21:33:56.067Z,6.90
2022-11-20T21:36:28.684Z,6.90
2022-11-20T21:38:57.370Z,6.70
2022-11-20T21:41:26.638Z,6.40
2022-11-20T21:44:24.033Z,5.90
2022-11-20T21:46:44.786Z,5.60
2022-11-20T21:49:12.758Z,5.40
2022-11-20T21:51:40.516Z,5.40
2022-11-20T21:54:09.585Z,5.20
2022-11-20T21:56:37.003Z,5.00
2022-11-20T21:59:04.405Z,5.10
2022-11-20T22:01:32.164Z,5.10
2022-11-20T22:04:01.667Z,5.00
2022-11-20T22:06:34.020Z,5.00
2022-11-20T22:09:02.533Z,5.30
2022-11-20T22:11:30.781Z,5.20
2022-11-20T22:14:16.844Z,4.80
2022-11-20T22:16:44.263Z,4.70
2022-11-20T22:19:12.077Z,4.80
2022-11-20T22:21:40.824Z,4.80
2022-11-20T22:24:12.359Z,4.80
2022-11-20T22:26:40.783Z,4.90
2022-11-20T22:29:12.390Z,4.80
2022-11-20T22:31:39.833Z,4.50
2022-11-20T22:34:09.869Z,4.60
2022-11-20T22:36:38.081Z,4.70
2022-11-20T22:39:06.306Z,4.60
2022-11-20T22:41:34.555Z,4.60
2022-11-20T22:44:07.180Z,4.60
2022-11-20T22:46:36.376Z,4.50
2022-11-20T22:49:06.915Z,4.70
2022-11-20T22:51:36.759Z,4.70
2022-11-20T22:54:04.460Z,4.80
2022-11-20T22:56:32.423Z,4.70
2022-11-20T22:58:59.781Z,4.70
2022-11-20T23:01:36.931Z,4.80
2022-11-20T23:04:10.380Z,4.80
2022-11-20T23:06:38.182Z,5.00
2022-11-20T23:09:07.054Z,5.10
2022-11-20T23:11:35.742Z,5.60
2022-11-20T23:14:06.339Z,5.90
2022-11-20T23:16:34.647Z,6.30
2022-11-20T23:19:08.551Z,6.50
2022-11-20T23:21:37.631Z,6.70
2022-11-20T23:24:06.144Z,6.70
2022-11-20T23:26:36.358Z,6.40
2022-11-20T23:29:04.981Z,6.30
2022-11-20T23:31:34.693Z,6.20
2022-11-20T23:34:02.124Z,6.10
2022-11-20T23:36:29.541Z,6.10
2022-11-20T23:38:57.023Z,6.20
2022-11-20T23:41:24.652Z,6.20
2022-11-20T23:43:53.600Z,6.30
2022-11-20T23:46:21.076Z,6.30
2022-11-20T23:48:48.456Z,6.30
2022-11-20T23:51:15.930Z,6.20
2022-11-20T23:53:43.482Z,5.90
2022-11-20T23:56:11.950Z,5.90
2022-11-20T23:58:39.552Z,5.90
